sensor_id;sensor_type;location;lat;lon;timestamp;P1;durP1;ratioP1;P2;durP2;ratioP2
5989;SDS011;14149;53.562;10.032;2022-08-07T00:00:33;13.70;;;6.30;;
5989;SDS011;14149;53.562;10.032;2022-08-07T00:02:59;16.23;;;7.40;;
5989;SDS011;14149;53.562;10.032;2022-08-07T00:05:25;12.30;;;6.87;;
5989;SDS011;14149;53.562;10.032;2022-08-07T00:07:52;12.83;;;7.43;;
5989;SDS011;14149;53.562;10.032;2022-08-07T00:10:19;14.13;;;8.23;;
5989;SDS011;14149;53.562;10.032;2022-08-07T00:12:45;12.77;;;7.10;;
5989;SDS011;14149;53.562;10.032;2022-08-07T00:15:11;14.40;;;6.60;;
5989;SDS011;14149;53.562;10.032;2022-08-07T00:17:37;13.97;;;8.00;;
5989;SDS011;14149;53.562;10.032;2022-08-07T00:20:04;12.53;;;6.93;;
5989;SDS011;14149;53.562;10.032;2022-08-07T00:22:30;12.90;;;7.60;;
5989;SDS011;14149;53.562;10.032;2022-08-07T00:24:56;13.13;;;7.10;;
5989;SDS011;14149;53.562;10.032;2022-08-07T00:27:23;13.00;;;7.60;;
5989;SDS011;14149;53.562;10.032;2022-08-07T00:29:49;13.43;;;7.10;;
5989;SDS011;14149;53.562;10.032;2022-08-07T00:32:15;14.20;;;7.83;;
5989;SDS011;14149;53.562;10.032;2022-08-07T00:34:41;15.77;;;6.90;;
5989;SDS011;14149;53.562;10.032;2022-08-07T00:37:07;12.40;;;6.43;;
5989;SDS011;14149;53.562;10.032;2022-08-07T00:39:34;19.93;;;7.80;;
5989;SDS011;14149;53.562;10.032;2022-08-07T00:42:00;13.77;;;7.57;;
5989;SDS011;14149;53.562;10.032;2022-08-07T00:44:27;14.70;;;7.60;;
5989;SDS011;14149;53.562;10.032;2022-08-07T00:46:53;14.10;;;7.40;;
5989;SDS011;14149;53.562;10.032;2022-08-07T00:49:20;16.00;;;7.50;;
5989;SDS011;14149;53.562;10.032;2022-08-07T00:51:46;16.10;;;7.57;;
5989;SDS011;14149;53.562;10.032;2022-08-07T00:54:12;17.73;;;8.27;;
5989;SDS011;14149;53.562;10.032;2022-08-07T00:56:39;15.50;;;8.27;;
5989;SDS011;14149;53.562;10.032;2022-08-07T00:59:06;17.70;;;7.50;;
5989;SDS011;14149;53.562;10.032;2022-08-07T01:01:32;15.57;;;8.20;;
5989;SDS011;14149;53.562;10.032;2022-08-07T01:03:59;16.73;;;7.20;;
5989;SDS011;14149;53.562;10.032;2022-08-07T01:06:25;14.80;;;8.20;;
5989;SDS011;14149;53.562;10.032;2022-08-07T01:08:52;14.03;;;7.30;;
5989;SDS011;14149;53.562;10.032;2022-08-07T01:11:18;13.43;;;7.60;;
5989;SDS011;14149;53.562;10.032;2022-08-07T01:13:44;12.43;;;7.13;;
5989;SDS011;14149;53.562;10.032;2022-08-07T01:16:10;14.47;;;8.20;;
5989;SDS011;14149;53.562;10.032;2022-08-07T01:18:36;14.33;;;7.90;;
5989;SDS011;14149;53.562;10.032;2022-08-07T01:23:29;12.93;;;7.30;;
5989;SDS011;14149;53.562;10.032;2022-08-07T01:25:55;15.17;;;8.00;;
5989;SDS011;14149;53.562;10.032;2022-08-07T01:28:21;13.53;;;7.30;;
5989;SDS011;14149;53.562;10.032;2022-08-07T01:30:48;15.20;;;8.23;;
5989;SDS011;14149;53.562;10.032;2022-08-07T01:33:14;15.10;;;8.10;;
5989;SDS011;14149;53.562;10.032;2022-08-07T01:35:41;12.53;;;6.90;;
5989;SDS011;14149;53.562;10.032;2022-08-07T01:38:07;15.20;;;7.23;;
5989;SDS011;14149;53.562;10.032;2022-08-07T01:40:33;18.20;;;8.17;;
5989;SDS011;14149;53.562;10.032;2022-08-07T01:43:00;14.10;;;7.90;;
5989;SDS011;14149;53.562;10.032;2022-08-07T01:45:26;16.53;;;7.90;;
5989;SDS011;14149;53.562;10.032;2022-08-07T01:47:52;14.70;;;6.83;;
5989;SDS011;14149;53.562;10.032;2022-08-07T01:50:18;18.20;;;7.67;;
5989;SDS011;14149;53.562;10.032;2022-08-07T01:52:46;15.47;;;7.40;;
5989;SDS011;14149;53.562;10.032;2022-08-07T01:55:12;15.53;;;7.93;;
5989;SDS011;14149;53.562;10.032;2022-08-07T01:57:39;15.17;;;8.00;;
5989;SDS011;14149;53.562;10.032;2022-08-07T02:00:07;13.27;;;7.73;;
5989;SDS011;14149;53.562;10.032;2022-08-07T02:02:42;16.63;;;8.07;;
5989;SDS011;14149;53.562;10.032;2022-08-07T02:05:11;14.10;;;7.37;;
5989;SDS011;14149;53.562;10.032;2022-08-07T02:07:40;13.80;;;8.13;;
5989;SDS011;14149;53.562;10.032;2022-08-07T02:10:08;17.97;;;8.43;;
5989;SDS011;14149;53.562;10.032;2022-08-07T02:12:35;19.37;;;7.40;;
5989;SDS011;14149;53.562;10.032;2022-08-07T02:15:02;21.70;;;8.90;;
5989;SDS011;14149;53.562;10.032;2022-08-07T02:17:29;15.93;;;8.30;;
5989;SDS011;14149;53.562;10.032;2022-08-07T02:19:56;16.37;;;8.40;;
5989;SDS011;14149;53.562;10.032;2022-08-07T02:22:23;14.77;;;8.33;;
5989;SDS011;14149;53.562;10.032;2022-08-07T02:24:50;18.30;;;8.40;;
5989;SDS011;14149;53.562;10.032;2022-08-07T02:27:18;15.60;;;8.07;;
5989;SDS011;14149;53.562;10.032;2022-08-07T02:29:45;14.60;;;8.00;;
5989;SDS011;14149;53.562;10.032;2022-08-07T02:32:11;15.13;;;8.30;;
5989;SDS011;14149;53.562;10.032;2022-08-07T02:34:39;13.67;;;8.23;;
5989;SDS011;14149;53.562;10.032;2022-08-07T02:37:06;14.50;;;8.07;;
5989;SDS011;14149;53.562;10.032;2022-08-07T02:39:33;18.17;;;8.90;;
5989;SDS011;14149;53.562;10.032;2022-08-07T02:42:00;16.20;;;8.03;;
5989;SDS011;14149;53.562;10.032;2022-08-07T02:44:27;15.93;;;8.10;;
5989;SDS011;14149;53.562;10.032;2022-08-07T02:46:55;16.13;;;8.57;;
5989;SDS011;14149;53.562;10.032;2022-08-07T02:49:21;18.57;;;9.50;;
5989;SDS011;14149;53.562;10.032;2022-08-07T02:51:47;14.27;;;8.10;;
5989;SDS011;14149;53.562;10.032;2022-08-07T02:54:15;15.20;;;7.73;;
5989;SDS011;14149;53.562;10.032;2022-08-07T02:56:42;14.60;;;8.50;;
5989;SDS011;14149;53.562;10.032;2022-08-07T02:59:09;13.70;;;7.73;;
5989;SDS011;14149;53.562;10.032;2022-08-07T03:01:36;14.90;;;8.90;;
5989;SDS011;14149;53.562;10.032;2022-08-07T03:04:07;17.90;;;9.10;;
5989;SDS011;14149;53.562;10.032;2022-08-07T03:06:34;16.77;;;9.13;;
5989;SDS011;14149;53.562;10.032;2022-08-07T03:09:02;18.97;;;8.87;;
5989;SDS011;14149;53.562;10.032;2022-08-07T03:11:28;21.33;;;9.00;;
5989;SDS011;14149;53.562;10.032;2022-08-07T03:13:55;14.63;;;8.80;;
5989;SDS011;14149;53.562;10.032;2022-08-07T03:16:21;16.03;;;8.37;;
5989;SDS011;14149;53.562;10.032;2022-08-07T03:18:48;16.10;;;8.27;;
5989;SDS011;14149;53.562;10.032;2022-08-07T03:21:14;18.80;;;8.73;;
5989;SDS011;14149;53.562;10.032;2022-08-07T03:23:40;16.60;;;9.10;;
5989;SDS011;14149;53.562;10.032;2022-08-07T03:26:07;18.77;;;9.53;;
5989;SDS011;14149;53.562;10.032;2022-08-07T03:28:34;18.73;;;8.70;;
5989;SDS011;14149;53.562;10.032;2022-08-07T03:31:00;18.20;;;9.40;;
5989;SDS011;14149;53.562;10.032;2022-08-07T03:33:42;14.07;;;8.13;;
5989;SDS011;14149;53.562;10.032;2022-08-07T03:36:09;13.90;;;7.63;;
5989;SDS011;14149;53.562;10.032;2022-08-07T03:38:36;15.33;;;8.93;;
5989;SDS011;14149;53.562;10.032;2022-08-07T03:41:03;15.87;;;9.13;;
5989;SDS011;14149;53.562;10.032;2022-08-07T03:43:29;18.50;;;9.23;;
5989;SDS011;14149;53.562;10.032;2022-08-07T03:45:56;15.17;;;7.90;;
5989;SDS011;14149;53.562;10.032;2022-08-07T03:48:23;15.73;;;8.40;;
5989;SDS011;14149;53.562;10.032;2022-08-07T03:50:50;18.90;;;10.17;;
5989;SDS011;14149;53.562;10.032;2022-08-07T03:53:17;15.43;;;7.70;;
5989;SDS011;14149;53.562;10.032;2022-08-07T03:55:43;16.03;;;8.30;;
5989;SDS011;14149;53.562;10.032;2022-08-07T03:58:09;17.00;;;9.33;;
5989;SDS011;14149;53.562;10.032;2022-08-07T04:00:36;17.70;;;9.40;;
5989;SDS011;14149;53.562;10.032;2022-08-07T04:03:03;16.83;;;9.83;;
5989;SDS011;14149;53.562;10.032;2022-08-07T04:05:30;15.67;;;8.63;;
5989;SDS011;14149;53.562;10.032;2022-08-07T04:07:56;17.40;;;8.40;;
5989;SDS011;14149;53.562;10.032;2022-08-07T04:10:23;17.87;;;9.57;;
5989;SDS011;14149;53.562;10.032;2022-08-07T04:12:49;18.90;;;9.73;;
5989;SDS011;14149;53.562;10.032;2022-08-07T04:15:15;17.87;;;9.37;;
5989;SDS011;14149;53.562;10.032;2022-08-07T04:17:42;15.87;;;8.57;;
5989;SDS011;14149;53.562;10.032;2022-08-07T04:20:10;19.10;;;9.30;;
5989;SDS011;14149;53.562;10.032;2022-08-07T04:22:37;13.53;;;7.57;;
5989;SDS011;14149;53.562;10.032;2022-08-07T04:25:03;16.90;;;8.80;;
5989;SDS011;14149;53.562;10.032;2022-08-07T04:27:30;22.20;;;8.90;;
5989;SDS011;14149;53.562;10.032;2022-08-07T04:29:56;19.60;;;9.87;;
5989;SDS011;14149;53.562;10.032;2022-08-07T04:32:22;15.60;;;8.37;;
5989;SDS011;14149;53.562;10.032;2022-08-07T04:34:48;17.43;;;8.80;;
5989;SDS011;14149;53.562;10.032;2022-08-07T04:37:15;14.70;;;8.73;;
5989;SDS011;14149;53.562;10.032;2022-08-07T04:39:41;14.13;;;8.20;;
5989;SDS011;14149;53.562;10.032;2022-08-07T04:42:07;16.30;;;9.43;;
5989;SDS011;14149;53.562;10.032;2022-08-07T04:44:33;16.53;;;9.47;;
5989;SDS011;14149;53.562;10.032;2022-08-07T04:52:05;18.03;;;10.00;;
5989;SDS011;14149;53.562;10.032;2022-08-07T04:59:35;18.63;;;10.57;;
5989;SDS011;14149;53.562;10.032;2022-08-07T05:02:09;16.60;;;9.60;;
5989;SDS011;14149;53.562;10.032;2022-08-07T05:07:30;14.33;;;8.47;;
5989;SDS011;14149;53.562;10.032;2022-08-07T05:09:58;22.57;;;9.47;;
5989;SDS011;14149;53.562;10.032;2022-08-07T05:12:41;17.33;;;10.00;;
5989;SDS011;14149;53.562;10.032;2022-08-07T05:15:08;17.50;;;9.97;;
5989;SDS011;14149;53.562;10.032;2022-08-07T05:17:47;18.97;;;9.70;;
5989;SDS011;14149;53.562;10.032;2022-08-07T05:20:18;20.27;;;10.27;;
5989;SDS011;14149;53.562;10.032;2022-08-07T05:22:48;15.57;;;8.20;;
5989;SDS011;14149;53.562;10.032;2022-08-07T05:25:16;20.90;;;9.20;;
5989;SDS011;14149;53.562;10.032;2022-08-07T05:27:44;17.17;;;9.10;;
5989;SDS011;14149;53.562;10.032;2022-08-07T05:30:11;16.10;;;8.70;;
5989;SDS011;14149;53.562;10.032;2022-08-07T05:32:38;17.80;;;11.03;;
5989;SDS011;14149;53.562;10.032;2022-08-07T05:35:05;19.77;;;8.63;;
5989;SDS011;14149;53.562;10.032;2022-08-07T05:37:32;18.57;;;9.20;;
5989;SDS011;14149;53.562;10.032;2022-08-07T05:39:58;17.07;;;9.67;;
5989;SDS011;14149;53.562;10.032;2022-08-07T05:42:25;17.07;;;9.33;;
5989;SDS011;14149;53.562;10.032;2022-08-07T05:44:51;16.33;;;9.13;;
5989;SDS011;14149;53.562;10.032;2022-08-07T05:47:19;17.40;;;9.67;;
5989;SDS011;14149;53.562;10.032;2022-08-07T05:49:46;19.53;;;9.43;;
5989;SDS011;14149;53.562;10.032;2022-08-07T05:52:13;14.80;;;8.83;;
5989;SDS011;14149;53.562;10.032;2022-08-07T05:54:39;19.53;;;10.30;;
5989;SDS011;14149;53.562;10.032;2022-08-07T05:57:05;17.90;;;8.80;;
5989;SDS011;14149;53.562;10.032;2022-08-07T05:59:35;15.87;;;8.93;;
5989;SDS011;14149;53.562;10.032;2022-08-07T06:02:02;17.60;;;9.10;;
5989;SDS011;14149;53.562;10.032;2022-08-07T06:04:30;13.30;;;8.77;;
5989;SDS011;14149;53.562;10.032;2022-08-07T06:06:57;19.30;;;8.63;;
5989;SDS011;14149;53.562;10.032;2022-08-07T06:09:27;18.13;;;8.03;;
5989;SDS011;14149;53.562;10.032;2022-08-07T06:11:54;18.77;;;8.97;;
5989;SDS011;14149;53.562;10.032;2022-08-07T06:14:20;14.23;;;7.40;;
5989;SDS011;14149;53.562;10.032;2022-08-07T06:16:47;16.77;;;8.90;;
5989;SDS011;14149;53.562;10.032;2022-08-07T06:19:13;17.63;;;10.20;;
5989;SDS011;14149;53.562;10.032;2022-08-07T06:21:40;16.17;;;8.40;;
5989;SDS011;14149;53.562;10.032;2022-08-07T06:24:08;14.30;;;8.17;;
5989;SDS011;14149;53.562;10.032;2022-08-07T06:26:34;16.80;;;9.50;;
5989;SDS011;14149;53.562;10.032;2022-08-07T06:29:03;14.60;;;7.37;;
5989;SDS011;14149;53.562;10.032;2022-08-07T06:31:29;13.47;;;7.97;;
5989;SDS011;14149;53.562;10.032;2022-08-07T06:33:55;15.13;;;8.30;;
5989;SDS011;14149;53.562;10.032;2022-08-07T06:36:21;16.30;;;7.70;;
5989;SDS011;14149;53.562;10.032;2022-08-07T06:38:51;15.90;;;8.40;;
5989;SDS011;14149;53.562;10.032;2022-08-07T06:41:22;16.13;;;8.03;;
5989;SDS011;14149;53.562;10.032;2022-08-07T06:43:49;17.27;;;7.90;;
5989;SDS011;14149;53.562;10.032;2022-08-07T06:46:15;14.10;;;7.33;;
5989;SDS011;14149;53.562;10.032;2022-08-07T06:48:41;12.33;;;6.90;;
5989;SDS011;14149;53.562;10.032;2022-08-07T06:51:08;15.20;;;6.57;;
5989;SDS011;14149;53.562;10.032;2022-08-07T06:53:36;11.97;;;6.23;;
5989;SDS011;14149;53.562;10.032;2022-08-07T06:56:04;10.30;;;5.50;;
5989;SDS011;14149;53.562;10.032;2022-08-07T06:58:32;12.60;;;6.20;;
5989;SDS011;14149;53.562;10.032;2022-08-07T07:00:59;10.33;;;4.97;;
5989;SDS011;14149;53.562;10.032;2022-08-07T07:03:27;9.47;;;5.07;;
5989;SDS011;14149;53.562;10.032;2022-08-07T07:05:53;8.27;;;3.70;;
5989;SDS011;14149;53.562;10.032;2022-08-07T07:08:23;9.13;;;4.87;;
5989;SDS011;14149;53.562;10.032;2022-08-07T07:10:49;9.00;;;4.43;;
5989;SDS011;14149;53.562;10.032;2022-08-07T07:13:17;13.67;;;4.63;;
5989;SDS011;14149;53.562;10.032;2022-08-07T07:15:48;9.67;;;4.40;;
5989;SDS011;14149;53.562;10.032;2022-08-07T07:18:27;10.57;;;5.17;;
5989;SDS011;14149;53.562;10.032;2022-08-07T07:20:55;10.40;;;4.63;;
5989;SDS011;14149;53.562;10.032;2022-08-07T07:23:22;16.47;;;5.50;;
5989;SDS011;14149;53.562;10.032;2022-08-07T07:25:49;8.80;;;4.27;;
5989;SDS011;14149;53.562;10.032;2022-08-07T07:28:26;8.70;;;4.50;;
5989;SDS011;14149;53.562;10.032;2022-08-07T07:31:09;12.20;;;5.33;;
5989;SDS011;14149;53.562;10.032;2022-08-07T07:33:37;12.60;;;5.30;;
5989;SDS011;14149;53.562;10.032;2022-08-07T07:36:04;11.60;;;5.23;;
5989;SDS011;14149;53.562;10.032;2022-08-07T07:38:31;12.00;;;5.13;;
5989;SDS011;14149;53.562;10.032;2022-08-07T07:40:59;9.23;;;4.57;;
5989;SDS011;14149;53.562;10.032;2022-08-07T07:43:26;9.77;;;4.83;;
5989;SDS011;14149;53.562;10.032;2022-08-07T07:45:54;14.70;;;5.87;;
5989;SDS011;14149;53.562;10.032;2022-08-07T07:48:21;10.50;;;5.40;;
5989;SDS011;14149;53.562;10.032;2022-08-07T07:50:47;11.10;;;5.43;;
5989;SDS011;14149;53.562;10.032;2022-08-07T07:53:15;9.90;;;4.70;;
5989;SDS011;14149;53.562;10.032;2022-08-07T07:55:43;10.87;;;5.10;;
5989;SDS011;14149;53.562;10.032;2022-08-07T07:58:10;10.10;;;5.00;;
5989;SDS011;14149;53.562;10.032;2022-08-07T08:00:36;10.30;;;5.17;;
5989;SDS011;14149;53.562;10.032;2022-08-07T08:03:12;10.30;;;5.67;;
5989;SDS011;14149;53.562;10.032;2022-08-07T08:05:40;9.37;;;5.07;;
5989;SDS011;14149;53.562;10.032;2022-08-07T08:08:07;10.83;;;5.40;;
5989;SDS011;14149;53.562;10.032;2022-08-07T08:10:34;9.23;;;4.70;;
5989;SDS011;14149;53.562;10.032;2022-08-07T08:13:01;12.63;;;6.03;;
5989;SDS011;14149;53.562;10.032;2022-08-07T08:15:28;11.60;;;4.67;;
5989;SDS011;14149;53.562;10.032;2022-08-07T08:17:55;11.17;;;5.10;;
5989;SDS011;14149;53.562;10.032;2022-08-07T08:20:22;11.57;;;5.63;;
5989;SDS011;14149;53.562;10.032;2022-08-07T08:22:49;10.00;;;4.93;;
5989;SDS011;14149;53.562;10.032;2022-08-07T08:25:35;9.23;;;5.17;;
5989;SDS011;14149;53.562;10.032;2022-08-07T08:28:23;9.07;;;4.40;;
5989;SDS011;14149;53.562;10.032;2022-08-07T08:30:57;10.80;;;5.10;;
5989;SDS011;14149;53.562;10.032;2022-08-07T08:33:23;9.67;;;5.00;;
5989;SDS011;14149;53.562;10.032;2022-08-07T08:35:51;13.80;;;4.80;;
5989;SDS011;14149;53.562;10.032;2022-08-07T08:38:21;9.40;;;4.93;;
5989;SDS011;14149;53.562;10.032;2022-08-07T08:40:52;11.13;;;5.43;;
5989;SDS011;14149;53.562;10.032;2022-08-07T08:43:21;8.20;;;4.00;;
5989;SDS011;14149;53.562;10.032;2022-08-07T08:45:51;9.97;;;4.87;;
5989;SDS011;14149;53.562;10.032;2022-08-07T08:53:33;10.20;;;5.50;;
5989;SDS011;14149;53.562;10.032;2022-08-07T08:56:05;11.10;;;4.70;;
5989;SDS011;14149;53.562;10.032;2022-08-07T08:58:44;13.37;;;5.90;;
5989;SDS011;14149;53.562;10.032;2022-08-07T09:01:14;9.47;;;5.27;;
5989;SDS011;14149;53.562;10.032;2022-08-07T09:11:40;11.10;;;5.47;;
5989;SDS011;14149;53.562;10.032;2022-08-07T09:21:42;9.50;;;4.50;;
5989;SDS011;14149;53.562;10.032;2022-08-07T09:29:35;10.03;;;4.47;;
5989;SDS011;14149;53.562;10.032;2022-08-07T09:37:26;11.30;;;5.47;;
5989;SDS011;14149;53.562;10.032;2022-08-07T09:53:04;9.60;;;5.57;;
5989;SDS011;14149;53.562;10.032;2022-08-07T09:55:49;9.00;;;5.23;;
5989;SDS011;14149;53.562;10.032;2022-08-07T09:58:22;9.43;;;5.70;;
5989;SDS011;14149;53.562;10.032;2022-08-07T10:08:40;9.47;;;5.17;;
5989;SDS011;14149;53.562;10.032;2022-08-07T10:13:45;9.33;;;5.07;;
5989;SDS011;14149;53.562;10.032;2022-08-07T10:19:07;10.57;;;5.67;;
5989;SDS011;14149;53.562;10.032;2022-08-07T10:21:52;9.97;;;5.37;;
5989;SDS011;14149;53.562;10.032;2022-08-07T10:24:37;8.20;;;4.43;;
5989;SDS011;14149;53.562;10.032;2022-08-07T10:35:08;10.13;;;4.80;;
5989;SDS011;14149;53.562;10.032;2022-08-07T10:43:01;16.30;;;4.90;;
5989;SDS011;14149;53.562;10.032;2022-08-07T10:45:34;9.23;;;5.03;;
5989;SDS011;14149;53.562;10.032;2022-08-07T10:50:55;9.70;;;4.90;;
5989;SDS011;14149;53.562;10.032;2022-08-07T10:55:55;8.63;;;4.77;;
5989;SDS011;14149;53.562;10.032;2022-08-07T11:06:28;8.90;;;4.87;;
5989;SDS011;14149;53.562;10.032;2022-08-07T11:09:06;9.43;;;5.20;;
5989;SDS011;14149;53.562;10.032;2022-08-07T11:11:34;12.80;;;5.30;;
5989;SDS011;14149;53.562;10.032;2022-08-07T11:14:03;9.50;;;4.87;;
5989;SDS011;14149;53.562;10.032;2022-08-07T11:16:38;9.67;;;4.37;;
5989;SDS011;14149;53.562;10.032;2022-08-07T11:19:10;9.10;;;5.07;;
5989;SDS011;14149;53.562;10.032;2022-08-07T11:21:41;9.30;;;5.20;;
5989;SDS011;14149;53.562;10.032;2022-08-07T11:24:20;8.43;;;4.40;;
5989;SDS011;14149;53.562;10.032;2022-08-07T11:27:07;9.10;;;4.30;;
5989;SDS011;14149;53.562;10.032;2022-08-07T11:29:46;8.80;;;4.40;;
5989;SDS011;14149;53.562;10.032;2022-08-07T11:32:19;9.80;;;5.13;;
5989;SDS011;14149;53.562;10.032;2022-08-07T11:34:49;8.73;;;4.60;;
5989;SDS011;14149;53.562;10.032;2022-08-07T11:40:13;8.80;;;4.20;;
5989;SDS011;14149;53.562;10.032;2022-08-07T11:45:26;9.60;;;4.80;;
5989;SDS011;14149;53.562;10.032;2022-08-07T11:58:15;9.20;;;4.60;;
5989;SDS011;14149;53.562;10.032;2022-08-07T12:03:35;9.43;;;4.67;;
5989;SDS011;14149;53.562;10.032;2022-08-07T12:08:48;8.63;;;4.07;;
5989;SDS011;14149;53.562;10.032;2022-08-07T12:11:19;9.23;;;4.90;;
5989;SDS011;14149;53.562;10.032;2022-08-07T12:13:57;11.03;;;4.50;;
5989;SDS011;14149;53.562;10.032;2022-08-07T12:16:26;10.53;;;4.70;;
5989;SDS011;14149;53.562;10.032;2022-08-07T12:27:01;8.43;;;4.50;;
5989;SDS011;14149;53.562;10.032;2022-08-07T12:35:12;8.00;;;4.37;;
5989;SDS011;14149;53.562;10.032;2022-08-07T12:37:39;10.27;;;4.67;;
5989;SDS011;14149;53.562;10.032;2022-08-07T12:40:07;8.73;;;4.20;;
5989;SDS011;14149;53.562;10.032;2022-08-07T12:42:34;10.40;;;5.20;;
5989;SDS011;14149;53.562;10.032;2022-08-07T12:45:06;10.43;;;4.47;;
5989;SDS011;14149;53.562;10.032;2022-08-07T12:47:37;8.03;;;4.00;;
5989;SDS011;14149;53.562;10.032;2022-08-07T12:50:09;9.17;;;4.63;;
5989;SDS011;14149;53.562;10.032;2022-08-07T12:52:40;8.50;;;4.50;;
5989;SDS011;14149;53.562;10.032;2022-08-07T12:55:54;11.37;;;4.27;;
5989;SDS011;14149;53.562;10.032;2022-08-07T12:58:00;7.60;;;4.00;;
5989;SDS011;14149;53.562;10.032;2022-08-07T13:00:33;8.43;;;3.97;;
5989;SDS011;14149;53.562;10.032;2022-08-07T13:03:14;8.20;;;4.40;;
5989;SDS011;14149;53.562;10.032;2022-08-07T13:06:00;9.17;;;4.00;;
5989;SDS011;14149;53.562;10.032;2022-08-07T13:21:28;9.90;;;4.63;;
5989;SDS011;14149;53.562;10.032;2022-08-07T13:29:00;11.53;;;5.60;;
5989;SDS011;14149;53.562;10.032;2022-08-07T13:31:30;8.33;;;4.60;;
5989;SDS011;14149;53.562;10.032;2022-08-07T13:34:00;8.50;;;4.50;;
5989;SDS011;14149;53.562;10.032;2022-08-07T13:36:39;9.97;;;5.10;;
5989;SDS011;14149;53.562;10.032;2022-08-07T13:39:08;10.30;;;4.63;;
5989;SDS011;14149;53.562;10.032;2022-08-07T13:41:39;9.47;;;4.47;;
5989;SDS011;14149;53.562;10.032;2022-08-07T13:44:08;10.20;;;5.20;;
5989;SDS011;14149;53.562;10.032;2022-08-07T13:46:36;8.43;;;4.70;;
5989;SDS011;14149;53.562;10.032;2022-08-07T13:49:04;8.80;;;4.60;;
5989;SDS011;14149;53.562;10.032;2022-08-07T13:51:33;10.30;;;4.90;;
5989;SDS011;14149;53.562;10.032;2022-08-07T13:54:08;7.60;;;4.00;;
5989;SDS011;14149;53.562;10.032;2022-08-07T13:56:35;13.47;;;4.50;;
5989;SDS011;14149;53.562;10.032;2022-08-07T13:59:02;9.70;;;4.70;;
5989;SDS011;14149;53.562;10.032;2022-08-07T14:02:18;9.53;;;4.03;;
5989;SDS011;14149;53.562;10.032;2022-08-07T14:04:16;10.07;;;5.30;;
5989;SDS011;14149;53.562;10.032;2022-08-07T14:06:44;10.90;;;5.03;;
5989;SDS011;14149;53.562;10.032;2022-08-07T14:09:15;8.97;;;5.27;;
5989;SDS011;14149;53.562;10.032;2022-08-07T14:11:48;9.17;;;5.27;;
5989;SDS011;14149;53.562;10.032;2022-08-07T14:14:15;9.77;;;4.90;;
5989;SDS011;14149;53.562;10.032;2022-08-07T14:16:42;8.80;;;4.50;;
5989;SDS011;14149;53.562;10.032;2022-08-07T14:19:28;9.27;;;5.10;;
5989;SDS011;14149;53.562;10.032;2022-08-07T14:21:55;8.73;;;4.50;;
5989;SDS011;14149;53.562;10.032;2022-08-07T14:24:30;8.30;;;4.40;;
5989;SDS011;14149;53.562;10.032;2022-08-07T14:26:59;8.50;;;4.60;;
5989;SDS011;14149;53.562;10.032;2022-08-07T14:29:28;11.40;;;4.73;;
5989;SDS011;14149;53.562;10.032;2022-08-07T14:31:58;9.37;;;4.47;;
5989;SDS011;14149;53.562;10.032;2022-08-07T14:34:26;9.63;;;4.83;;
5989;SDS011;14149;53.562;10.032;2022-08-07T14:36:52;10.67;;;4.97;;
5989;SDS011;14149;53.562;10.032;2022-08-07T14:39:19;10.27;;;4.70;;
5989;SDS011;14149;53.562;10.032;2022-08-07T14:41:47;9.30;;;4.93;;
5989;SDS011;14149;53.562;10.032;2022-08-07T14:44:15;10.73;;;4.67;;
5989;SDS011;14149;53.562;10.032;2022-08-07T14:46:41;8.60;;;4.77;;
5989;SDS011;14149;53.562;10.032;2022-08-07T14:49:08;9.00;;;4.83;;
5989;SDS011;14149;53.562;10.032;2022-08-07T14:51:34;9.10;;;4.50;;
5989;SDS011;14149;53.562;10.032;2022-08-07T14:54:01;12.07;;;5.20;;
5989;SDS011;14149;53.562;10.032;2022-08-07T14:56:28;9.33;;;4.43;;
5989;SDS011;14149;53.562;10.032;2022-08-07T14:59:00;10.33;;;4.97;;
5989;SDS011;14149;53.562;10.032;2022-08-07T15:01:29;9.13;;;4.70;;
5989;SDS011;14149;53.562;10.032;2022-08-07T15:04:00;10.00;;;5.00;;
5989;SDS011;14149;53.562;10.032;2022-08-07T15:06:29;9.50;;;4.83;;
5989;SDS011;14149;53.562;10.032;2022-08-07T15:09:00;9.80;;;4.87;;
5989;SDS011;14149;53.562;10.032;2022-08-07T15:11:28;9.40;;;4.57;;
5989;SDS011;14149;53.562;10.032;2022-08-07T15:13:58;9.00;;;4.70;;
5989;SDS011;14149;53.562;10.032;2022-08-07T15:16:27;8.13;;;4.40;;
5989;SDS011;14149;53.562;10.032;2022-08-07T15:18:58;9.23;;;5.30;;
5989;SDS011;14149;53.562;10.032;2022-08-07T15:21:27;10.87;;;4.67;;
5989;SDS011;14149;53.562;10.032;2022-08-07T15:23:56;9.70;;;5.10;;
5989;SDS011;14149;53.562;10.032;2022-08-07T15:26:23;8.30;;;4.27;;
5989;SDS011;14149;53.562;10.032;2022-08-07T15:28:56;7.87;;;4.13;;
5989;SDS011;14149;53.562;10.032;2022-08-07T15:31:23;8.03;;;4.17;;
5989;SDS011;14149;53.562;10.032;2022-08-07T15:33:55;7.90;;;3.90;;
5989;SDS011;14149;53.562;10.032;2022-08-07T15:36:21;7.80;;;4.30;;
5989;SDS011;14149;53.562;10.032;2022-08-07T15:38:48;7.63;;;4.30;;
5989;SDS011;14149;53.562;10.032;2022-08-07T15:41:16;9.37;;;4.20;;
5989;SDS011;14149;53.562;10.032;2022-08-07T15:43:43;8.83;;;4.77;;
5989;SDS011;14149;53.562;10.032;2022-08-07T15:46:14;9.50;;;4.67;;
5989;SDS011;14149;53.562;10.032;2022-08-07T15:48:41;9.03;;;4.77;;
5989;SDS011;14149;53.562;10.032;2022-08-07T15:51:08;8.20;;;4.50;;
5989;SDS011;14149;53.562;10.032;2022-08-07T15:53:41;8.80;;;4.60;;
5989;SDS011;14149;53.562;10.032;2022-08-07T15:56:09;8.73;;;4.40;;
5989;SDS011;14149;53.562;10.032;2022-08-07T15:58:38;9.93;;;4.50;;
5989;SDS011;14149;53.562;10.032;2022-08-07T16:01:11;8.73;;;4.23;;
5989;SDS011;14149;53.562;10.032;2022-08-07T16:03:38;10.40;;;4.70;;
5989;SDS011;14149;53.562;10.032;2022-08-07T16:06:04;8.33;;;4.30;;
5989;SDS011;14149;53.562;10.032;2022-08-07T16:08:31;10.13;;;4.70;;
5989;SDS011;14149;53.562;10.032;2022-08-07T16:11:04;7.83;;;4.30;;
5989;SDS011;14149;53.562;10.032;2022-08-07T16:13:36;9.70;;;5.00;;
5989;SDS011;14149;53.562;10.032;2022-08-07T16:16:12;9.43;;;5.00;;
5989;SDS011;14149;53.562;10.032;2022-08-07T16:21:15;8.50;;;4.93;;
5989;SDS011;14149;53.562;10.032;2022-08-07T16:23:59;9.07;;;4.80;;
5989;SDS011;14149;53.562;10.032;2022-08-07T16:29:11;9.70;;;5.20;;
5989;SDS011;14149;53.562;10.032;2022-08-07T16:34:12;8.70;;;5.13;;
5989;SDS011;14149;53.562;10.032;2022-08-07T16:39:31;9.00;;;4.30;;
5989;SDS011;14149;53.562;10.032;2022-08-07T16:47:13;8.77;;;4.40;;
5989;SDS011;14149;53.562;10.032;2022-08-07T16:52:29;9.10;;;4.70;;
5989;SDS011;14149;53.562;10.032;2022-08-07T17:00:05;9.73;;;4.87;;
5989;SDS011;14149;53.562;10.032;2022-08-07T17:07:53;8.30;;;4.53;;
5989;SDS011;14149;53.562;10.032;2022-08-07T17:10:35;13.37;;;4.80;;
5989;SDS011;14149;53.562;10.032;2022-08-07T17:15:43;8.60;;;4.43;;
5989;SDS011;14149;53.562;10.032;2022-08-07T17:18:27;9.40;;;4.70;;
5989;SDS011;14149;53.562;10.032;2022-08-07T17:20:54;11.63;;;5.00;;
5989;SDS011;14149;53.562;10.032;2022-08-07T17:26:02;8.90;;;4.40;;
5989;SDS011;14149;53.562;10.032;2022-08-07T17:29:17;8.97;;;4.17;;
5989;SDS011;14149;53.562;10.032;2022-08-07T17:36:40;8.47;;;4.67;;
5989;SDS011;14149;53.562;10.032;2022-08-07T17:39:08;7.90;;;4.40;;
5989;SDS011;14149;53.562;10.032;2022-08-07T17:41:58;9.60;;;4.43;;
5989;SDS011;14149;53.562;10.032;2022-08-07T17:44:41;9.70;;;5.07;;
5989;SDS011;14149;53.562;10.032;2022-08-07T17:49:58;8.07;;;4.40;;
5989;SDS011;14149;53.562;10.032;2022-08-07T17:52:26;9.00;;;4.60;;
5989;SDS011;14149;53.562;10.032;2022-08-07T17:55:12;9.60;;;4.50;;
5989;SDS011;14149;53.562;10.032;2022-08-07T18:00:18;9.77;;;3.90;;
5989;SDS011;14149;53.562;10.032;2022-08-07T18:02:52;9.10;;;4.10;;
5989;SDS011;14149;53.562;10.032;2022-08-07T18:05:27;9.93;;;4.13;;
5989;SDS011;14149;53.562;10.032;2022-08-07T18:07:58;9.27;;;4.70;;